sensor_id;sensor_type;location;lat;lon;timestamp;pressure;altitude;pressure_sealevel;temperature;humidity
61645;BME280;47553;52.428;13.382;2022-12-10T00:01:22;100318.22;;;-0.82;100.00
61645;BME280;47553;52.428;13.382;2022-12-10T00:03:24;100317.31;;;-0.81;100.00
61645;BME280;47553;52.428;13.382;2022-12-10T00:05:26;100299.88;;;-0.82;100.00
61645;BME280;47553;52.428;13.382;2022-12-10T00:07:27;100316.97;;;-0.63;100.00
61645;BME280;47553;52.428;13.382;2022-12-10T00:09:29;100327.47;;;-0.63;100.00
61645;BME280;47553;52.428;13.382;2022-12-10T00:11:31;100326.56;;;-0.62;100.00
61645;BME280;47553;52.428;13.382;2022-12-10T00:13:33;100322.16;;;-0.60;100.00
61645;BME280;47553;52.428;13.382;2022-12-10T00:15:35;100311.03;;;-0.71;100.00
61645;BME280;47553;52.428;13.382;2022-12-10T00:17:38;100306.78;;;-0.78;100.00
61645;BME280;47553;52.428;13.382;2022-12-10T00:19:39;100316.41;;;-0.79;100.00
61645;BME280;47553;52.428;13.382;2022-12-10T00:21:42;100311.16;;;-0.79;100.00
61645;BME280;47553;52.428;13.382;2022-12-10T00:23:45;100325.84;;;-0.70;100.00
61645;BME280;47553;52.428;13.382;2022-12-10T00:25:46;100323.28;;;-0.73;100.00
61645;BME280;47553;52.428;13.382;2022-12-10T00:27:48;100319.81;;;-0.74;100.00
61645;BME280;47553;52.428;13.382;2022-12-10T00:29:50;100327.84;;;-0.84;100.00
61645;BME280;47553;52.428;13.382;2022-12-10T00:31:51;100321.13;;;-0.97;100.00
61645;BME280;47553;52.428;13.382;2022-12-10T00:33:55;100329.63;;;-0.86;100.00
61645;BME280;47553;52.428;13.382;2022-12-10T00:36:01;100322.69;;;-0.87;100.00
61645;BME280;47553;52.428;13.382;2022-12-10T00:38:03;100325.13;;;-0.78;100.00
61645;BME280;47553;52.428;13.382;2022-12-10T00:40:04;100327.69;;;-0.75;100.00
61645;BME280;47553;52.428;13.382;2022-12-10T00:42:07;100326.19;;;-0.88;100.00
61645;BME280;47553;52.428;13.382;2022-12-10T00:44:09;100335.13;;;-1.00;100.00
61645;BME280;47553;52.428;13.382;2022-12-10T00:46:10;100331.44;;;-0.88;100.00
61645;BME280;47553;52.428;13.382;2022-12-10T00:48:12;100332.16;;;-0.80;100.00
61645;BME280;47553;52.428;13.382;2022-12-10T00:50:15;100327.63;;;-0.72;100.00
61645;BME280;47553;52.428;13.382;2022-12-10T00:52:17;100336.53;;;-0.81;100.00
61645;BME280;47553;52.428;13.382;2022-12-10T00:54:18;100338.16;;;-0.75;100.00
61645;BME280;47553;52.428;13.382;2022-12-10T00:56:21;100332.94;;;-0.75;100.00
61645;BME280;47553;52.428;13.382;2022-12-10T00:58:25;100325.34;;;-0.90;100.00
61645;BME280;47553;52.428;13.382;2022-12-10T01:00:27;100333.16;;;-0.87;100.00
61645;BME280;47553;52.428;13.382;2022-12-10T01:02:29;100336.66;;;-0.88;100.00
61645;BME280;47553;52.428;13.382;2022-12-10T01:04:30;100338.44;;;-0.90;100.00
61645;BME280;47553;52.428;13.382;2022-12-10T01:06:35;100340.06;;;-0.83;100.00
61645;BME280;47553;52.428;13.382;2022-12-10T01:08:37;100333.88;;;-0.79;100.00
61645;BME280;47553;52.428;13.382;2022-12-10T01:10:39;100342.28;;;-0.62;100.00
61645;BME280;47553;52.428;13.382;2022-12-10T01:12:40;100336.13;;;-0.59;100.00
61645;BME280;47553;52.428;13.382;2022-12-10T01:14:42;100342.53;;;-0.76;100.00
61645;BME280;47553;52.428;13.382;2022-12-10T01:16:44;100347.72;;;-0.73;100.00
61645;BME280;47553;52.428;13.382;2022-12-10T01:18:46;100342.38;;;-0.66;100.00
61645;BME280;47553;52.428;13.382;2022-12-10T01:20:47;100289.72;;;-1.01;100.00
61645;BME280;47553;52.428;13.382;2022-12-10T01:22:50;100333.75;;;-0.73;100.00
61645;BME280;47553;52.428;13.382;2022-12-10T01:24:52;100336.84;;;-1.01;100.00
61645;BME280;47553;52.428;13.382;2022-12-10T01:26:53;100330.09;;;-1.14;100.00
61645;BME280;47553;52.428;13.382;2022-12-10T01:28:56;100335.88;;;-0.93;100.00
61645;BME280;47553;52.428;13.382;2022-12-10T01:31:01;100323.81;;;-1.04;100.00
61645;BME280;47553;52.428;13.382;2022-12-10T01:33:02;100333.16;;;-0.87;100.00
61645;BME280;47553;52.428;13.382;2022-12-10T01:35:04;100336.59;;;-0.85;100.00
61645;BME280;47553;52.428;13.382;2022-12-10T01:37:06;100333.22;;;-0.90;100.00
61645;BME280;47553;52.428;13.382;2022-12-10T01:39:10;100323.69;;;-0.94;100.00
61645;BME280;47553;52.428;13.382;2022-12-10T01:41:15;100331.66;;;-1.04;100.00
61645;BME280;47553;52.428;13.382;2022-12-10T01:43:17;100322.69;;;-0.89;100.00
61645;BME280;47553;52.428;13.382;2022-12-10T01:45:19;100327.06;;;-0.88;100.00
61645;BME280;47553;52.428;13.382;2022-12-10T01:47:21;100321.06;;;-0.94;100.00
61645;BME280;47553;52.428;13.382;2022-12-10T01:49:23;100315.03;;;-1.01;100.00
61645;BME280;47553;52.428;13.382;2022-12-10T01:51:28;100335.38;;;-1.17;100.00
61645;BME280;47553;52.428;13.382;2022-12-10T01:53:31;100330.03;;;-1.11;100.00
61645;BME280;47553;52.428;13.382;2022-12-10T01:55:43;100326.53;;;-1.10;100.00
61645;BME280;47553;52.428;13.382;2022-12-10T01:57:45;100330.94;;;-1.13;100.00
61645;BME280;47553;52.428;13.382;2022-12-10T01:59:50;100322.25;;;-1.14;100.00
61645;BME280;47553;52.428;13.382;2022-12-10T02:01:57;100329.34;;;-1.20;100.00
61645;BME280;47553;52.428;13.382;2022-12-10T02:04:11;100328.63;;;-1.30;100.00
61645;BME280;47553;52.428;13.382;2022-12-10T02:06:31;100333.06;;;-1.35;100.00
61645;BME280;47553;52.428;13.382;2022-12-10T02:08:40;100322.81;;;-1.49;100.00
61645;BME280;47553;52.428;13.382;2022-12-10T02:10:57;100328.06;;;-1.50;100.00
61645;BME280;47553;52.428;13.382;2022-12-10T02:13:05;100321.72;;;-1.34;100.00
61645;BME280;47553;52.428;13.382;2022-12-10T02:15:13;100320.91;;;-1.39;100.00
61645;BME280;47553;52.428;13.382;2022-12-10T02:17:18;100326.94;;;-1.34;100.00
61645;BME280;47553;52.428;13.382;2022-12-10T02:19:25;100308.72;;;-1.40;100.00
61645;BME280;47553;52.428;13.382;2022-12-10T02:21:35;100321.94;;;-1.49;100.00
61645;BME280;47553;52.428;13.382;2022-12-10T02:23:40;100326.47;;;-1.59;100.00
61645;BME280;47553;52.428;13.382;2022-12-10T02:25:51;100320.66;;;-1.24;100.00
61645;BME280;47553;52.428;13.382;2022-12-10T02:27:59;100328.47;;;-1.21;100.00
61645;BME280;47553;52.428;13.382;2022-12-10T02:30:05;100322.97;;;-1.06;100.00
61645;BME280;47553;52.428;13.382;2022-12-10T02:32:11;100326.59;;;-1.13;100.00
61645;BME280;47553;52.428;13.382;2022-12-10T02:34:15;100324.56;;;-0.95;100.00
61645;BME280;47553;52.428;13.382;2022-12-10T02:36:18;100315.59;;;-0.82;100.00
61645;BME280;47553;52.428;13.382;2022-12-10T02:38:24;100313.88;;;-0.83;100.00
61645;BME280;47553;52.428;13.382;2022-12-10T02:40:31;100313.91;;;-0.85;100.00
61645;BME280;47553;52.428;13.382;2022-12-10T02:42:38;100322.72;;;-0.90;100.00
61645;BME280;47553;52.428;13.382;2022-12-10T02:44:40;100315.16;;;-1.07;100.00
61645;BME280;47553;52.428;13.382;2022-12-10T02:46:47;100323.13;;;-1.15;100.00
61645;BME280;47553;52.428;13.382;2022-12-10T02:48:51;100320.44;;;-1.10;100.00
61645;BME280;47553;52.428;13.382;2022-12-10T02:50:53;100315.91;;;-1.01;100.00
61645;BME280;47553;52.428;13.382;2022-12-10T02:52:55;100322.09;;;-1.06;100.00
61645;BME280;47553;52.428;13.382;2022-12-10T02:54:56;100321.13;;;-1.01;100.00
61645;BME280;47553;52.428;13.382;2022-12-10T02:57:00;100326.69;;;-1.19;100.00
61645;BME280;47553;52.428;13.382;2022-12-10T02:59:10;100329.09;;;-1.07;100.00
61645;BME280;47553;52.428;13.382;2022-12-10T03:01:22;100324.81;;;-1.11;100.00
61645;BME280;47553;52.428;13.382;2022-12-10T03:03:34;100325.66;;;-1.10;100.00
61645;BME280;47553;52.428;13.382;2022-12-10T03:05:43;100333.09;;;-1.37;100.00
61645;BME280;47553;52.428;13.382;2022-12-10T03:07:49;100331.97;;;-1.22;100.00
61645;BME280;47553;52.428;13.382;2022-12-10T03:09:55;100333.94;;;-1.36;100.00
61645;BME280;47553;52.428;13.382;2022-12-10T03:12:06;100336.38;;;-1.24;100.00
61645;BME280;47553;52.428;13.382;2022-12-10T03:14:13;100342.06;;;-0.97;100.00
61645;BME280;47553;52.428;13.382;2022-12-10T03:16:16;100346.28;;;-0.89;100.00
61645;BME280;47553;52.428;13.382;2022-12-10T03:18:22;100344.75;;;-1.04;100.00
61645;BME280;47553;52.428;13.382;2022-12-10T03:20:26;100346.78;;;-1.21;100.00
61645;BME280;47553;52.428;13.382;2022-12-10T03:22:29;100339.84;;;-1.23;100.00
61645;BME280;47553;52.428;13.382;2022-12-10T03:24:33;100345.06;;;-1.22;100.00
61645;BME280;47553;52.428;13.382;2022-12-10T03:26:37;100338.97;;;-1.24;100.00
61645;BME280;47553;52.428;13.382;2022-12-10T03:28:41;100342.50;;;-1.25;100.00
61645;BME280;47553;52.428;13.382;2022-12-10T03:30:47;100348.47;;;-1.17;100.00
61645;BME280;47553;52.428;13.382;2022-12-10T03:32:50;100346.75;;;-1.19;100.00
61645;BME280;47553;52.428;13.382;2022-12-10T03:34:54;100348.28;;;-1.06;100.00
61645;BME280;47553;52.428;13.382;2022-12-10T03:36:58;100338.47;;;-0.92;100.00
61645;BME280;47553;52.428;13.382;2022-12-10T03:39:01;100349.25;;;-1.12;100.00
61645;BME280;47553;52.428;13.382;2022-12-10T03:41:03;100343.91;;;-1.06;100.00
61645;BME280;47553;52.428;13.382;2022-12-10T03:43:05;100341.66;;;-0.75;99.01
61645;BME280;47553;52.428;13.382;2022-12-10T03:45:07;100355.84;;;-0.88;99.08
61645;BME280;47553;52.428;13.382;2022-12-10T03:47:12;100345.19;;;-0.77;97.31
61645;BME280;47553;52.428;13.382;2022-12-10T03:49:15;100355.03;;;-0.91;99.16
61645;BME280;47553;52.428;13.382;2022-12-10T03:51:17;100355.25;;;-1.05;99.66
61645;BME280;47553;52.428;13.382;2022-12-10T03:53:20;100349.06;;;-0.99;100.00
61645;BME280;47553;52.428;13.382;2022-12-10T03:55:22;100358.47;;;-0.88;97.93
61645;BME280;47553;52.428;13.382;2022-12-10T03:57:23;100355.25;;;-1.05;100.00
61645;BME280;47553;52.428;13.382;2022-12-10T03:59:25;100364.81;;;-1.03;100.00
61645;BME280;47553;52.428;13.382;2022-12-10T04:01:27;100356.25;;;-1.14;100.00
61645;BME280;47553;52.428;13.382;2022-12-10T04:03:28;100366.53;;;-1.02;100.00
61645;BME280;47553;52.428;13.382;2022-12-10T04:05:30;100356.84;;;-0.95;100.00
61645;BME280;47553;52.428;13.382;2022-12-10T04:07:31;100369.88;;;-0.92;100.00
61645;BME280;47553;52.428;13.382;2022-12-10T04:09:34;100366.28;;;-0.85;100.00
61645;BME280;47553;52.428;13.382;2022-12-10T04:11:36;100361.00;;;-0.83;99.87
61645;BME280;47553;52.428;13.382;2022-12-10T04:13:38;100367.91;;;-0.79;99.62
61645;BME280;47553;52.428;13.382;2022-12-10T04:15:40;100350.47;;;-0.80;98.88
61645;BME280;47553;52.428;13.382;2022-12-10T04:17:42;100366.03;;;-0.71;99.12
61645;BME280;47553;52.428;13.382;2022-12-10T04:19:44;100360.56;;;-0.59;98.77
61645;BME280;47553;52.428;13.382;2022-12-10T04:21:46;100348.28;;;-0.55;99.58
61645;BME280;47553;52.428;13.382;2022-12-10T04:23:48;100356.88;;;-0.49;97.74
61645;BME280;47553;52.428;13.382;2022-12-10T04:25:51;100351.06;;;-0.64;96.60
61645;BME280;47553;52.428;13.382;2022-12-10T04:27:52;100355.25;;;-0.56;97.74
61645;BME280;47553;52.428;13.382;2022-12-10T04:29:54;100361.31;;;-0.52;98.30
61645;BME280;47553;52.428;13.382;2022-12-10T04:31:57;100357.75;;;-0.50;96.67
61645;BME280;47553;52.428;13.382;2022-12-10T04:33:58;100349.91;;;-0.50;97.04
61645;BME280;47553;52.428;13.382;2022-12-10T04:36:00;100348.88;;;-0.41;97.18
61645;BME280;47553;52.428;13.382;2022-12-10T04:38:02;100357.97;;;-0.60;95.00
61645;BME280;47553;52.428;13.382;2022-12-10T04:40:04;100366.47;;;-0.48;96.33
61645;BME280;47553;52.428;13.382;2022-12-10T04:42:08;100360.44;;;-0.53;96.76
61645;BME280;47553;52.428;13.382;2022-12-10T04:44:10;100355.19;;;-0.51;97.58
61645;BME280;47553;52.428;13.382;2022-12-10T04:46:12;100355.09;;;-0.47;97.45
61645;BME280;47553;52.428;13.382;2022-12-10T04:48:13;100362.41;;;-0.64;97.42
61645;BME280;47553;52.428;13.382;2022-12-10T04:50:15;100366.53;;;-0.51;97.15
61645;BME280;47553;52.428;13.382;2022-12-10T04:52:17;100366.34;;;-0.42;97.26
61645;BME280;47553;52.428;13.382;2022-12-10T04:54:18;100364.88;;;-0.56;97.05
61645;BME280;47553;52.428;13.382;2022-12-10T04:56:20;100368.00;;;-0.38;96.28
61645;BME280;47553;52.428;13.382;2022-12-10T04:58:23;100367.41;;;-0.52;95.38
61645;BME280;47553;52.428;13.382;2022-12-10T05:00:24;100371.53;;;-0.39;96.08
61645;BME280;47553;52.428;13.382;2022-12-10T05:02:26;100366.84;;;-0.21;96.08
61645;BME280;47553;52.428;13.382;2022-12-10T05:04:27;100370.44;;;-0.28;95.84
61645;BME280;47553;52.428;13.382;2022-12-10T05:06:30;100363.78;;;-0.45;95.91
61645;BME280;47553;52.428;13.382;2022-12-10T05:08:31;100365.28;;;-0.31;97.35
61645;BME280;47553;52.428;13.382;2022-12-10T05:10:34;100359.53;;;-0.50;97.23
61645;BME280;47553;52.428;13.382;2022-12-10T05:12:36;100359.16;;;-0.78;98.52
61645;BME280;47553;52.428;13.382;2022-12-10T05:14:39;100372.03;;;-0.66;99.35
61645;BME280;47553;52.428;13.382;2022-12-10T05:16:41;100366.44;;;-0.46;97.64
61645;BME280;47553;52.428;13.382;2022-12-10T05:18:43;100364.91;;;-0.58;97.30
61645;BME280;47553;52.428;13.382;2022-12-10T05:20:44;100374.09;;;-0.36;97.95
61645;BME280;47553;52.428;13.382;2022-12-10T05:22:46;100375.41;;;-0.13;96.17
61645;BME280;47553;52.428;13.382;2022-12-10T05:24:47;100362.13;;;-0.04;95.44
61645;BME280;47553;52.428;13.382;2022-12-10T05:26:49;100368.00;;;0.07;93.31
61645;BME280;47553;52.428;13.382;2022-12-10T05:28:52;100368.00;;;0.07;93.36
61645;BME280;47553;52.428;13.382;2022-12-10T05:30:56;100371.31;;;-0.28;93.92
61645;BME280;47553;52.428;13.382;2022-12-10T05:32:58;100366.84;;;-0.21;95.66
61645;BME280;47553;52.428;13.382;2022-12-10T05:34:59;100372.81;;;-0.15;94.73
61645;BME280;47553;52.428;13.382;2022-12-10T05:37:01;100373.97;;;-0.29;95.67
61645;BME280;47553;52.428;13.382;2022-12-10T05:39:03;100376.47;;;-0.22;96.09
61645;BME280;47553;52.428;13.382;2022-12-10T05:41:06;100377.97;;;-0.10;95.37
61645;BME280;47553;52.428;13.382;2022-12-10T05:43:08;100370.88;;;-0.05;95.00
61645;BME280;47553;52.428;13.382;2022-12-10T05:45:10;100370.38;;;-0.22;94.41
61645;BME280;47553;52.428;13.382;2022-12-10T05:47:13;100375.34;;;-0.10;95.06
61645;BME280;47553;52.428;13.382;2022-12-10T05:49:14;100375.06;;;0.04;94.91
61645;BME280;47553;52.428;13.382;2022-12-10T05:51:18;100374.16;;;0.06;92.87
61645;BME280;47553;52.428;13.382;2022-12-10T05:53:19;100373.31;;;0.04;92.10
61645;BME280;47553;52.428;13.382;2022-12-10T05:55:21;100377.75;;;0.01;91.04
61645;BME280;47553;52.428;13.382;2022-12-10T05:57:23;100376.56;;;0.15;91.22
61645;BME280;47553;52.428;13.382;2022-12-10T05:59:24;100379.09;;;0.20;90.31
61645;BME280;47553;52.428;13.382;2022-12-10T06:01:28;100373.44;;;-0.02;91.19
61645;BME280;47553;52.428;13.382;2022-12-10T06:03:31;100375.69;;;0.16;88.93
61645;BME280;47553;52.428;13.382;2022-12-10T06:05:36;100377.91;;;-0.07;91.99
61645;BME280;47553;52.428;13.382;2022-12-10T06:07:37;100373.59;;;-0.10;93.64
61645;BME280;47553;52.428;13.382;2022-12-10T06:09:39;100370.25;;;-0.16;90.20
61645;BME280;47553;52.428;13.382;2022-12-10T06:11:40;100373.72;;;-0.16;92.44
61645;BME280;47553;52.428;13.382;2022-12-10T06:13:42;100364.75;;;-0.04;100.00
61645;BME280;47553;52.428;13.382;2022-12-10T06:15:44;100375.34;;;-0.10;97.91
61645;BME280;47553;52.428;13.382;2022-12-10T06:17:45;100377.97;;;0.32;100.00
61645;BME280;47553;52.428;13.382;2022-12-10T06:19:48;100366.22;;;0.48;94.46
61645;BME280;47553;52.428;13.382;2022-12-10T06:21:50;100365.53;;;0.40;91.17
61645;BME280;47553;52.428;13.382;2022-12-10T06:23:51;100367.47;;;0.32;92.45
61645;BME280;47553;52.428;13.382;2022-12-10T06:25:53;100369.44;;;0.22;90.11
61645;BME280;47553;52.428;13.382;2022-12-10T06:27:55;100379.97;;;0.20;90.92
61645;BME280;47553;52.428;13.382;2022-12-10T06:29:56;100376.31;;;0.27;89.13
61645;BME280;47553;52.428;13.382;2022-12-10T06:31:58;100383.41;;;0.22;90.17
61645;BME280;47553;52.428;13.382;2022-12-10T06:34:00;100377.50;;;0.13;90.93
61645;BME280;47553;52.428;13.382;2022-12-10T06:36:05;100383.22;;;0.32;91.29
61645;BME280;47553;52.428;13.382;2022-12-10T06:38:07;100388.84;;;0.13;90.06
61645;BME280;47553;52.428;13.382;2022-12-10T06:40:09;100388.78;;;0.16;90.46
61645;BME280;47553;52.428;13.382;2022-12-10T06:42:11;100389.81;;;0.09;90.56
61645;BME280;47553;52.428;13.382;2022-12-10T06:44:13;100387.31;;;0.03;90.43
61645;BME280;47553;52.428;13.382;2022-12-10T06:46:16;100392.31;;;0.15;90.77
61645;BME280;47553;52.428;13.382;2022-12-10T06:48:18;100399.16;;;0.22;90.24
61645;BME280;47553;52.428;13.382;2022-12-10T06:50:19;100400.06;;;0.20;90.50
61645;BME280;47553;52.428;13.382;2022-12-10T06:52:22;100395.69;;;0.20;91.83
61645;BME280;47553;52.428;13.382;2022-12-10T06:54:24;100397.75;;;0.06;90.01
61645;BME280;47553;52.428;13.382;2022-12-10T06:56:25;100403.81;;;0.08;88.81
61645;BME280;47553;52.428;13.382;2022-12-10T06:58:27;100401.38;;;-0.01;90.29
61645;BME280;47553;52.428;13.382;2022-12-10T07:00:29;100404.91;;;-0.02;90.23
61645;BME280;47553;52.428;13.382;2022-12-10T07:02:30;100403.38;;;-0.12;91.46
61645;BME280;47553;52.428;13.382;2022-12-10T07:04:32;100409.34;;;-0.06;90.90
61645;BME280;47553;52.428;13.382;2022-12-10T07:06:34;100407.00;;;-0.19;91.46
61645;BME280;47553;52.428;13.382;2022-12-10T07:08:37;100406.22;;;-0.26;93.37
61645;BME280;47553;52.428;13.382;2022-12-10T07:10:38;100405.34;;;-0.23;93.37
61645;BME280;47553;52.428;13.382;2022-12-10T07:12:40;100410.91;;;0.03;91.18
61645;BME280;47553;52.428;13.382;2022-12-10T07:14:41;100413.41;;;0.09;90.02
61645;BME280;47553;52.428;13.382;2022-12-10T07:16:43;100410.09;;;0.01;89.94
61645;BME280;47553;52.428;13.382;2022-12-10T07:18:45;100415.03;;;0.16;89.31
61645;BME280;47553;52.428;13.382;2022-12-10T07:20:53;100406.13;;;0.23;88.89
61645;BME280;47553;52.428;13.382;2022-12-10T07:22:54;100422.13;;;0.11;89.85
61645;BME280;47553;52.428;13.382;2022-12-10T07:24:57;100417.13;;;-0.01;89.13
61645;BME280;47553;52.428;13.382;2022-12-10T07:26:59;100415.69;;;-0.17;89.77
61645;BME280;47553;52.428;13.382;2022-12-10T07:29:02;100423.66;;;0.21;88.90
61645;BME280;47553;52.428;13.382;2022-12-10T07:31:08;100420.53;;;0.44;87.14
61645;BME280;47553;52.428;13.382;2022-12-10T07:33:10;100406.81;;;-0.10;87.89
61645;BME280;47553;52.428;13.382;2022-12-10T07:35:12;100415.69;;;-0.17;89.45
61645;BME280;47553;52.428;13.382;2022-12-10T07:37:13;100426.28;;;-0.22;89.46
61645;BME280;47553;52.428;13.382;2022-12-10T07:39:15;100421.44;;;-0.45;89.58
61645;BME280;47553;52.428;13.382;2022-12-10T07:41:18;100419.94;;;-0.10;89.53
61645;BME280;47553;52.428;13.382;2022-12-10T07:43:20;100432.19;;;-0.12;89.04
61645;BME280;47553;52.428;13.382;2022-12-10T07:45:22;100427.00;;;-0.14;88.81
61645;BME280;47553;52.428;13.382;2022-12-10T07:47:23;100434.81;;;-0.12;89.27
61645;BME280;47553;52.428;13.382;2022-12-10T07:49:25;100438.97;;;-0.00;88.53
61645;BME280;47553;52.428;13.382;2022-12-10T07:51:27;100438.66;;;-0.31;90.00
61645;BME280;47553;52.428;13.382;2022-12-10T07:53:28;100443.69;;;-0.19;90.95
61645;BME280;47553;52.428;13.382;2022-12-10T07:55:30;100441.19;;;-0.25;89.55
61645;BME280;47553;52.428;13.382;2022-12-10T07:57:33;100438.34;;;-0.13;89.21
61645;BME280;47553;52.428;13.382;2022-12-10T07:59:34;100440.97;;;-0.13;90.18
61645;BME280;47553;52.428;13.382;2022-12-10T08:01:36;100444.34;;;-0.08;88.66
61645;BME280;47553;52.428;13.382;2022-12-10T08:03:37;100441.00;;;0.28;86.81
61645;BME280;47553;52.428;13.382;2022-12-10T08:05:39;100454.50;;;0.09;85.69
61645;BME280;47553;52.428;13.382;2022-12-10T08:07:41;100447.22;;;-0.20;86.71
61645;BME280;47553;52.428;13.382;2022-12-10T08:09:43;100457.78;;;-0.26;87.04
61645;BME280;47553;52.428;13.382;2022-12-10T08:11:44;100456.84;;;-0.21;87.49
61645;BME280;47553;52.428;13.382;2022-12-10T08:13:47;100456.03;;;-0.27;87.70
61645;BME280;47553;52.428;13.382;2022-12-10T08:16:00;100459.44;;;-0.19;88.01
61645;BME280;47553;52.428;13.382;2022-12-10T08:18:02;100455.97;;;-0.21;88.53
61645;BME280;47553;52.428;13.382;2022-12-10T08:20:04;100453.28;;;-0.18;89.64
61645;BME280;47553;52.428;13.382;2022-12-10T08:22:07;100463.03;;;-0.26;88.30
61645;BME280;47553;52.428;13.382;2022-12-10T08:24:08;100455.78;;;-0.12;88.10
61645;BME280;47553;52.428;13.382;2022-12-10T08:26:13;100463.84;;;-0.21;88.83
61645;BME280;47553;52.428;13.382;2022-12-10T08:28:15;100450.03;;;-0.32;88.95
61645;BME280;47553;52.428;13.382;2022-12-10T08:30:18;100465.66;;;-0.28;88.44
61645;BME280;47553;52.428;13.382;2022-12-10T08:32:20;100464.03;;;-0.33;88.05
61645;BME280;47553;52.428;13.382;2022-12-10T08:34:21;100461.22;;;-0.21;88.86
61645;BME280;47553;52.428;13.382;2022-12-10T08:36:23;100467.78;;;0.01;88.73
61645;BME280;47553;52.428;13.382;2022-12-10T08:38:24;100467.53;;;0.13;87.73
61645;BME280;47553;52.428;13.382;2022-12-10T08:40:26;100466.28;;;-0.12;86.97
61645;BME280;47553;52.428;13.382;2022-12-10T08:42:27;100460.97;;;-0.09;87.36
61645;BME280;47553;52.428;13.382;2022-12-10T08:44:29;100455.75;;;-0.09;88.25
61645;BME280;47553;52.428;13.382;2022-12-10T08:46:32;100467.59;;;0.10;87.15
61645;BME280;47553;52.428;13.382;2022-12-10T08:48:35;100464.38;;;-0.04;87.19
61645;BME280;47553;52.428;13.382;2022-12-10T08:50:37;100466.03;;;0.00;86.89
61645;BME280;47553;52.428;13.382;2022-12-10T08:52:38;100467.06;;;-0.07;88.81
61645;BME280;47553;52.428;13.382;2022-12-10T08:54:40;100471.22;;;0.03;87.75
61645;BME280;47553;52.428;13.382;2022-12-10T08:56:42;100480.28;;;-0.13;86.86
61645;BME280;47553;52.428;13.382;2022-12-10T08:58:43;100476.66;;;-0.06;87.70
61645;BME280;47553;52.428;13.382;2022-12-10T09:00:45;100476.47;;;0.03;88.26
61645;BME280;47553;52.428;13.382;2022-12-10T09:02:48;100485.22;;;0.02;88.07
61645;BME280;47553;52.428;13.382;2022-12-10T09:04:50;100479.13;;;0.02;88.17
61645;BME280;47553;52.428;13.382;2022-12-10T09:06:51;100480.06;;;-0.01;87.64
61645;BME280;47553;52.428;13.382;2022-12-10T09:08:53;100483.50;;;0.01;87.16
61645;BME280;47553;52.428;13.382;2022-12-10T09:10:55;100486.09;;;0.03;85.71
61645;BME280;47553;52.428;13.382;2022-12-10T09:12:56;100482.72;;;-0.04;86.91
61645;BME280;47553;52.428;13.382;2022-12-10T09:15:05;100479.88;;;0.08;86.22
61645;BME280;47553;52.428;13.382;2022-12-10T09:17:07;100489.03;;;-0.14;89.70
61645;BME280;47553;52.428;13.382;2022-12-10T09:19:10;100489.81;;;-0.09;89.16
61645;BME280;47553;52.428;13.382;2022-12-10T09:21:20;100491.97;;;0.15;87.84
61645;BME280;47553;52.428;13.382;2022-12-10T09:23:22;100493.47;;;0.28;85.66
61645;BME280;47553;52.428;13.382;2022-12-10T09:25:23;100490.84;;;0.28;86.95
61645;BME280;47553;52.428;13.382;2022-12-10T09:27:25;100491.25;;;0.52;85.06
61645;BME280;47553;52.428;13.382;2022-12-10T09:29:27;100491.19;;;0.55;86.61
61645;BME280;47553;52.428;13.382;2022-12-10T09:31:28;100491.81;;;0.23;88.59
61645;BME280;47553;52.428;13.382;2022-12-10T09:33:30;100495.38;;;0.20;88.17
61645;BME280;47553;52.428;13.382;2022-12-10T09:35:33;100492.66;;;0.25;87.57
61645;BME280;47553;52.428;13.382;2022-12-10T09:37:35;100489.97;;;0.28;85.85
61645;BME280;47553;52.428;13.382;2022-12-10T09:39:37;100486.97;;;0.03;87.90
61645;BME280;47553;52.428;13.382;2022-12-10T09:41:51;100487.34;;;0.28;86.94
61645;BME280;47553;52.428;13.382;2022-12-10T09:43:59;100491.06;;;0.61;85.38
61645;BME280;47553;52.428;13.382;2022-12-10T09:46:06;100482.59;;;0.47;86.00
61645;BME280;47553;52.428;13.382;2022-12-10T09:48:17;100476.13;;;0.21;86.89
61645;BME280;47553;52.428;13.382;2022-12-10T09:50:26;100471.00;;;0.15;86.92
61645;BME280;47553;52.428;13.382;2022-12-10T09:52:35;100482.00;;;0.33;87.84
61645;BME280;47553;52.428;13.382;2022-12-10T09:54:41;100483.53;;;0.43;86.74
61645;BME280;47553;52.428;13.382;2022-12-10T09:56:44;100482.19;;;0.23;88.20
61645;BME280;47553;52.428;13.382;2022-12-10T09:58:46;100475.59;;;0.46;86.97
61645;BME280;47553;52.428;13.382;2022-12-10T10:00:52;100491.88;;;0.65;86.11
61645;BME280;47553;52.428;13.382;2022-12-10T10:02:58;100478.56;;;0.72;85.94
61645;BME280;47553;52.428;13.382;2022-12-10T10:05:08;100478.03;;;0.56;86.01
61645;BME280;47553;52.428;13.382;2022-12-10T10:07:17;100481.56;;;0.55;84.84
61645;BME280;47553;52.428;13.382;2022-12-10T10:09:22;100475.06;;;0.30;86.81
61645;BME280;47553;52.428;13.382;2022-12-10T10:11:26;100463.13;;;0.15;86.99
61645;BME280;47553;52.428;13.382;2022-12-10T10:13:32;100471.63;;;0.26;86.25
61645;BME280;47553;52.428;13.382;2022-12-10T10:15:36;100478.25;;;0.44;87.78
61645;BME280;47553;52.428;13.382;2022-12-10T10:17:38;100480.91;;;0.43;87.67
61645;BME280;47553;52.428;13.382;2022-12-10T10:19:40;100480.81;;;0.49;85.76
61645;BME280;47553;52.428;13.382;2022-12-10T10:21:43;100488.34;;;0.66;86.62
61645;BME280;47553;52.428;13.382;2022-12-10T10:23:46;100486.00;;;0.52;86.09
61645;BME280;47553;52.428;13.382;2022-12-10T10:25:49;100494.72;;;0.54;84.67
61645;BME280;47553;52.428;13.382;2022-12-10T10:27:50;100483.81;;;0.72;84.83
61645;BME280;47553;52.428;13.382;2022-12-10T10:29:54;100476.56;;;0.83;83.43
61645;BME280;47553;52.428;13.382;2022-12-10T10:32:12;100489.19;;;0.66;83.62
61645;BME280;47553;52.428;13.382;2022-12-10T10:34:17;100488.25;;;0.70;84.15